sensor_id;sensor_type;location;lat;lon;timestamp;pressure;altitude;pressure_sealevel;temperature
61977;BMP280;45905;50.570;10.428;2023-11-19T00:00:11;97720.78;;;5.94
61977;BMP280;45905;50.570;10.428;2023-11-19T00:02:41;97732.38;;;5.95
61977;BMP280;45905;50.570;10.428;2023-11-19T00:05:10;97721.41;;;5.96
61977;BMP280;45905;50.570;10.428;2023-11-19T00:07:41;97720.47;;;5.97
61977;BMP280;45905;50.570;10.428;2023-11-19T00:10:14;97712.03;;;5.98
61977;BMP280;45905;50.570;10.428;2023-11-19T00:12:49;97701.84;;;6.00
61977;BMP280;45905;50.570;10.428;2023-11-19T00:15:18;97708.47;;;6.01
61977;BMP280;45905;50.570;10.428;2023-11-19T00:17:47;97713.34;;;6.02
61977;BMP280;45905;50.570;10.428;2023-11-19T00:20:18;97706.75;;;6.01
61977;BMP280;45905;50.570;10.428;2023-11-19T00:22:46;97701.59;;;6.03
61977;BMP280;45905;50.570;10.428;2023-11-19T00:25:21;97709.13;;;6.03
61977;BMP280;45905;50.570;10.428;2023-11-19T00:27:51;97709.91;;;6.03
61977;BMP280;45905;50.570;10.428;2023-11-19T00:30:20;97710.56;;;6.05
61977;BMP280;45905;50.570;10.428;2023-11-19T00:32:48;97711.34;;;6.06
61977;BMP280;45905;50.570;10.428;2023-11-19T00:35:16;97706.19;;;6.07
61977;BMP280;45905;50.570;10.428;2023-11-19T00:37:43;97689.53;;;6.06
61977;BMP280;45905;50.570;10.428;2023-11-19T00:40:13;97680.13;;;6.08
61977;BMP280;45905;50.570;10.428;2023-11-19T00:42:43;97693.50;;;6.09
61977;BMP280;45905;50.570;10.428;2023-11-19T00:45:11;97681.72;;;6.09
61977;BMP280;45905;50.570;10.428;2023-11-19T00:47:40;97665.72;;;6.10
61977;BMP280;45905;50.570;10.428;2023-11-19T00:50:09;97658.97;;;6.10
61977;BMP280;45905;50.570;10.428;2023-11-19T00:52:38;97654.72;;;6.11
61977;BMP280;45905;50.570;10.428;2023-11-19T00:55:06;97649.69;;;6.11
61977;BMP280;45905;50.570;10.428;2023-11-19T00:57:34;97644.53;;;6.12
61977;BMP280;45905;50.570;10.428;2023-11-19T01:00:04;97642.03;;;6.12
61977;BMP280;45905;50.570;10.428;2023-11-19T01:02:38;97640.28;;;6.13
61977;BMP280;45905;50.570;10.428;2023-11-19T01:05:08;97641.75;;;6.15
61977;BMP280;45905;50.570;10.428;2023-11-19T01:07:36;97643.59;;;6.13
61977;BMP280;45905;50.570;10.428;2023-11-19T01:10:04;97651.94;;;6.14
61977;BMP280;45905;50.570;10.428;2023-11-19T01:12:32;97660.13;;;6.16
61977;BMP280;45905;50.570;10.428;2023-11-19T01:15:00;97665.84;;;6.18
61977;BMP280;45905;50.570;10.428;2023-11-19T01:17:28;97657.50;;;6.17
61977;BMP280;45905;50.570;10.428;2023-11-19T01:19:58;97643.06;;;6.19
61977;BMP280;45905;50.570;10.428;2023-11-19T01:22:26;97631.28;;;6.20
61977;BMP280;45905;50.570;10.428;2023-11-19T01:24:54;97633.00;;;6.19
61977;BMP280;45905;50.570;10.428;2023-11-19T01:27:22;97625.34;;;6.21
61977;BMP280;45905;50.570;10.428;2023-11-19T01:29:49;97605.84;;;6.23
61977;BMP280;45905;50.570;10.428;2023-11-19T01:32:17;97612.47;;;6.24
61977;BMP280;45905;50.570;10.428;2023-11-19T01:34:45;97604.00;;;6.25
61977;BMP280;45905;50.570;10.428;2023-11-19T01:37:12;97612.22;;;6.27
61977;BMP280;45905;50.570;10.428;2023-11-19T01:39:44;97628.09;;;6.27
61977;BMP280;45905;50.570;10.428;2023-11-19T01:42:24;97609.69;;;6.27
61977;BMP280;45905;50.570;10.428;2023-11-19T01:45:01;97609.69;;;6.27
61977;BMP280;45905;50.570;10.428;2023-11-19T01:47:30;97599.50;;;6.28
61977;BMP280;45905;50.570;10.428;2023-11-19T01:49:58;97589.44;;;6.28
61977;BMP280;45905;50.570;10.428;2023-11-19T01:52:26;97593.38;;;6.30
61977;BMP280;45905;50.570;10.428;2023-11-19T01:54:54;97585.06;;;6.30
61977;BMP280;45905;50.570;10.428;2023-11-19T01:57:23;97580.81;;;6.30
61977;BMP280;45905;50.570;10.428;2023-11-19T01:59:53;97585.72;;;6.32
61977;BMP280;45905;50.570;10.428;2023-11-19T02:02:21;97570.50;;;6.33
61977;BMP280;45905;50.570;10.428;2023-11-19T02:04:51;97544.41;;;6.34
61977;BMP280;45905;50.570;10.428;2023-11-19T02:07:19;97546.91;;;6.34
61977;BMP280;45905;50.570;10.428;2023-11-19T02:09:48;97551.03;;;6.35
61977;BMP280;45905;50.570;10.428;2023-11-19T02:12:15;97551.03;;;6.35
61977;BMP280;45905;50.570;10.428;2023-11-19T02:14:43;97535.94;;;6.35
61977;BMP280;45905;50.570;10.428;2023-11-19T02:17:34;97546.00;;;6.35
61977;BMP280;45905;50.570;10.428;2023-11-19T02:20:05;97552.59;;;6.36
61977;BMP280;45905;50.570;10.428;2023-11-19T02:22:38;97527.31;;;6.38
61977;BMP280;45905;50.570;10.428;2023-11-19T02:25:12;97528.25;;;6.37
61977;BMP280;45905;50.570;10.428;2023-11-19T02:30:24;97530.63;;;6.38
61977;BMP280;45905;50.570;10.428;2023-11-19T02:32:56;97528.75;;;6.40
61977;BMP280;45905;50.570;10.428;2023-11-19T02:35:25;97521.19;;;6.40
61977;BMP280;45905;50.570;10.428;2023-11-19T02:37:59;97524.66;;;6.39
61977;BMP280;45905;50.570;10.428;2023-11-19T02:40:28;97526.09;;;6.42
61977;BMP280;45905;50.570;10.428;2023-11-19T02:42:56;97526.09;;;6.42
61977;BMP280;45905;50.570;10.428;2023-11-19T02:45:26;97523.44;;;6.43
61977;BMP280;45905;50.570;10.428;2023-11-19T02:47:54;97528.22;;;6.46
61977;BMP280;45905;50.570;10.428;2023-11-19T02:50:22;97508.09;;;6.46
61977;BMP280;45905;50.570;10.428;2023-11-19T02:52:55;97516.25;;;6.48
61977;BMP280;45905;50.570;10.428;2023-11-19T02:55:25;97505.13;;;6.50
61977;BMP280;45905;50.570;10.428;2023-11-19T02:57:55;97484.88;;;6.52
61977;BMP280;45905;50.570;10.428;2023-11-19T03:00:26;97478.91;;;6.53
61977;BMP280;45905;50.570;10.428;2023-11-19T03:03:03;97475.47;;;6.54
61977;BMP280;45905;50.570;10.428;2023-11-19T03:05:49;97466.06;;;6.56
61977;BMP280;45905;50.570;10.428;2023-11-19T03:08:17;97471.09;;;6.56
61977;BMP280;45905;50.570;10.428;2023-11-19T03:10:47;97460.06;;;6.57
61977;BMP280;45905;50.570;10.428;2023-11-19T03:13:15;97454.91;;;6.58
61977;BMP280;45905;50.570;10.428;2023-11-19T03:15:44;97442.84;;;6.62
61977;BMP280;45905;50.570;10.428;2023-11-19T03:18:12;97444.44;;;6.63
61977;BMP280;45905;50.570;10.428;2023-11-19T03:20:39;97450.13;;;6.65
61977;BMP280;45905;50.570;10.428;2023-11-19T03:23:07;97444.13;;;6.66
61977;BMP280;45905;50.570;10.428;2023-11-19T03:25:35;97442.25;;;6.67
61977;BMP280;45905;50.570;10.428;2023-11-19T03:28:04;97433.78;;;6.68
61977;BMP280;45905;50.570;10.428;2023-11-19T03:30:32;97445.44;;;6.69
61977;BMP280;45905;50.570;10.428;2023-11-19T03:33:01;97437.59;;;6.72
61977;BMP280;45905;50.570;10.428;2023-11-19T03:35:30;97443.25;;;6.74
61977;BMP280;45905;50.570;10.428;2023-11-19T03:37:58;97448.31;;;6.74
61977;BMP280;45905;50.570;10.428;2023-11-19T03:40:25;97448.31;;;6.74
61977;BMP280;45905;50.570;10.428;2023-11-19T03:42:53;97466.56;;;6.76
61977;BMP280;45905;50.570;10.428;2023-11-19T03:45:23;97453.06;;;6.77
61977;BMP280;45905;50.570;10.428;2023-11-19T03:47:50;97439.53;;;6.78
61977;BMP280;45905;50.570;10.428;2023-11-19T03:50:18;97424.31;;;6.80
61977;BMP280;45905;50.570;10.428;2023-11-19T03:52:48;97424.97;;;6.82
61977;BMP280;45905;50.570;10.428;2023-11-19T03:55:16;97431.56;;;6.83
61977;BMP280;45905;50.570;10.428;2023-11-19T03:57:43;97429.81;;;6.83
61977;BMP280;45905;50.570;10.428;2023-11-19T04:00:11;97435.66;;;6.84
61977;BMP280;45905;50.570;10.428;2023-11-19T04:02:41;97425.44;;;6.85
61977;BMP280;45905;50.570;10.428;2023-11-19T04:05:09;97415.38;;;6.85
61977;BMP280;45905;50.570;10.428;2023-11-19T04:07:37;97407.53;;;6.88
61977;BMP280;45905;50.570;10.428;2023-11-19T04:10:05;97403.44;;;6.87
61977;BMP280;45905;50.570;10.428;2023-11-19T04:12:33;97398.91;;;6.90
61977;BMP280;45905;50.570;10.428;2023-11-19T04:15:00;97407.25;;;6.91
61977;BMP280;45905;50.570;10.428;2023-11-19T04:17:28;97407.09;;;6.92
61977;BMP280;45905;50.570;10.428;2023-11-19T04:19:56;97384.28;;;6.94
61977;BMP280;45905;50.570;10.428;2023-11-19T04:22:24;97402.72;;;6.94
61977;BMP280;45905;50.570;10.428;2023-11-19T04:24:51;97400.72;;;6.98
61977;BMP280;45905;50.570;10.428;2023-11-19T04:27:19;97413.16;;;6.99
61977;BMP280;45905;50.570;10.428;2023-11-19T04:29:46;97409.53;;;7.02
61977;BMP280;45905;50.570;10.428;2023-11-19T04:32:15;97401.84;;;7.03
61977;BMP280;45905;50.570;10.428;2023-11-19T04:34:42;97400.91;;;7.04
61977;BMP280;45905;50.570;10.428;2023-11-19T04:37:10;97399.03;;;7.06
61977;BMP280;45905;50.570;10.428;2023-11-19T04:39:40;97394.81;;;7.06
61977;BMP280;45905;50.570;10.428;2023-11-19T04:42:07;97387.91;;;7.08
61977;BMP280;45905;50.570;10.428;2023-11-19T04:44:35;97392.75;;;7.10
61977;BMP280;45905;50.570;10.428;2023-11-19T04:47:03;97386.78;;;7.11
61977;BMP280;45905;50.570;10.428;2023-11-19T04:49:30;97389.16;;;7.12
61977;BMP280;45905;50.570;10.428;2023-11-19T04:51:57;97384.13;;;7.12
61977;BMP280;45905;50.570;10.428;2023-11-19T04:54:25;97394.22;;;7.12
61977;BMP280;45905;50.570;10.428;2023-11-19T04:56:52;97379.88;;;7.13
61977;BMP280;45905;50.570;10.428;2023-11-19T04:59:20;97378.03;;;7.15
61977;BMP280;45905;50.570;10.428;2023-11-19T05:01:48;97384.66;;;7.16
61977;BMP280;45905;50.570;10.428;2023-11-19T05:04:15;97370.31;;;7.16
61977;BMP280;45905;50.570;10.428;2023-11-19T05:06:43;97366.69;;;7.19
61977;BMP280;45905;50.570;10.428;2023-11-19T05:09:11;97362.47;;;7.19
61977;BMP280;45905;50.570;10.428;2023-11-19T05:11:40;97374.75;;;7.22
61977;BMP280;45905;50.570;10.428;2023-11-19T05:14:11;97382.97;;;7.24
61977;BMP280;45905;50.570;10.428;2023-11-19T05:16:42;97373.69;;;7.24
61977;BMP280;45905;50.570;10.428;2023-11-19T05:19:12;97376.84;;;7.26
61977;BMP280;45905;50.570;10.428;2023-11-19T05:21:44;97366.31;;;7.31
61977;BMP280;45905;50.570;10.428;2023-11-19T05:24:11;97367.91;;;7.32
61977;BMP280;45905;50.570;10.428;2023-11-19T05:26:39;97362.72;;;7.33
61977;BMP280;45905;50.570;10.428;2023-11-19T05:29:06;97370.13;;;7.35
61977;BMP280;45905;50.570;10.428;2023-11-19T05:31:34;97371.69;;;7.36
61977;BMP280;45905;50.570;10.428;2023-11-19T05:34:04;97375.78;;;7.37
61977;BMP280;45905;50.570;10.428;2023-11-19T05:36:32;97383.06;;;7.40
61977;BMP280;45905;50.570;10.428;2023-11-19T05:39:00;97382.94;;;7.41
61977;BMP280;45905;50.570;10.428;2023-11-19T05:41:27;97379.34;;;7.43
61977;BMP280;45905;50.570;10.428;2023-11-19T05:43:55;97378.38;;;7.44
61977;BMP280;45905;50.570;10.428;2023-11-19T05:46:22;97379.81;;;7.47
61977;BMP280;45905;50.570;10.428;2023-11-19T05:48:50;97377.13;;;7.48
61977;BMP280;45905;50.570;10.428;2023-11-19T05:51:18;97382.19;;;7.48
61977;BMP280;45905;50.570;10.428;2023-11-19T05:53:46;97386.28;;;7.49
61977;BMP280;45905;50.570;10.428;2023-11-19T05:56:13;97392.13;;;7.50
61977;BMP280;45905;50.570;10.428;2023-11-19T05:58:43;97384.41;;;7.51
61977;BMP280;45905;50.570;10.428;2023-11-19T06:01:12;97381.72;;;7.53
61977;BMP280;45905;50.570;10.428;2023-11-19T06:03:40;97374.16;;;7.53
61977;BMP280;45905;50.570;10.428;2023-11-19T06:06:08;97361.41;;;7.54
61977;BMP280;45905;50.570;10.428;2023-11-19T06:08:36;97357.16;;;7.55
61977;BMP280;45905;50.570;10.428;2023-11-19T06:11:04;97356.38;;;7.54
61977;BMP280;45905;50.570;10.428;2023-11-19T06:13:32;97354.50;;;7.56
61977;BMP280;45905;50.570;10.428;2023-11-19T06:16:00;97356.09;;;7.57
61977;BMP280;45905;50.570;10.428;2023-11-19T06:18:27;97340.97;;;7.57
61977;BMP280;45905;50.570;10.428;2023-11-19T06:20:55;97340.03;;;7.58
61977;BMP280;45905;50.570;10.428;2023-11-19T06:23:22;97338.31;;;7.59
61977;BMP280;45905;50.570;10.428;2023-11-19T06:25:50;97329.00;;;7.59
61977;BMP280;45905;50.570;10.428;2023-11-19T06:28:17;97341.47;;;7.61
61977;BMP280;45905;50.570;10.428;2023-11-19T06:30:45;97333.72;;;7.62
61977;BMP280;45905;50.570;10.428;2023-11-19T06:33:15;97332.19;;;7.61
61977;BMP280;45905;50.570;10.428;2023-11-19T06:35:43;97340.50;;;7.61
61977;BMP280;45905;50.570;10.428;2023-11-19T06:38:11;97335.31;;;7.63
61977;BMP280;45905;50.570;10.428;2023-11-19T06:40:39;97323.34;;;7.65
61977;BMP280;45905;50.570;10.428;2023-11-19T06:43:08;97341.66;;;7.67
61977;BMP280;45905;50.570;10.428;2023-11-19T06:45:36;97341.66;;;7.67
61977;BMP280;45905;50.570;10.428;2023-11-19T06:48:04;97349.84;;;7.69
61977;BMP280;45905;50.570;10.428;2023-11-19T06:50:32;97336.31;;;7.70
61977;BMP280;45905;50.570;10.428;2023-11-19T06:53:01;97349.53;;;7.72
61977;BMP280;45905;50.570;10.428;2023-11-19T06:55:28;97331.75;;;7.73
61977;BMP280;45905;50.570;10.428;2023-11-19T06:57:56;97344.19;;;7.75
61977;BMP280;45905;50.570;10.428;2023-11-19T07:00:23;97345.78;;;7.76
61977;BMP280;45905;50.570;10.428;2023-11-19T07:02:51;97346.44;;;7.78
61977;BMP280;45905;50.570;10.428;2023-11-19T07:05:18;97354.59;;;7.80
61977;BMP280;45905;50.570;10.428;2023-11-19T07:07:46;97351.94;;;7.81
61977;BMP280;45905;50.570;10.428;2023-11-19T07:10:14;97348.34;;;7.83
61977;BMP280;45905;50.570;10.428;2023-11-19T07:12:43;97349.78;;;7.86
61977;BMP280;45905;50.570;10.428;2023-11-19T07:15:12;97346.13;;;7.88
61977;BMP280;45905;50.570;10.428;2023-11-19T07:17:39;97349.31;;;7.90
61977;BMP280;45905;50.570;10.428;2023-11-19T07:20:08;97348.22;;;7.93
61977;BMP280;45905;50.570;10.428;2023-11-19T07:22:36;97337.03;;;7.95
61977;BMP280;45905;50.570;10.428;2023-11-19T07:25:06;97333.41;;;7.98
61977;BMP280;45905;50.570;10.428;2023-11-19T07:27:33;97343.38;;;7.99
61977;BMP280;45905;50.570;10.428;2023-11-19T07:30:01;97338.03;;;8.02
61977;BMP280;45905;50.570;10.428;2023-11-19T07:32:28;97345.13;;;8.06
61977;BMP280;45905;50.570;10.428;2023-11-19T07:34:56;97344.03;;;8.09
61977;BMP280;45905;50.570;10.428;2023-11-19T07:37:24;97352.91;;;8.13
61977;BMP280;45905;50.570;10.428;2023-11-19T07:39:51;97355.75;;;8.18
61977;BMP280;45905;50.570;10.428;2023-11-19T07:42:19;97355.28;;;8.22
61977;BMP280;45905;50.570;10.428;2023-11-19T07:44:46;97358.13;;;8.27
61977;BMP280;45905;50.570;10.428;2023-11-19T07:47:14;97361.75;;;8.32
61977;BMP280;45905;50.570;10.428;2023-11-19T07:49:41;97366.69;;;8.41
61977;BMP280;45905;50.570;10.428;2023-11-19T07:52:12;97363.06;;;8.52
61977;BMP280;45905;50.570;10.428;2023-11-19T07:54:42;97373.03;;;8.61
61977;BMP280;45905;50.570;10.428;2023-11-19T07:57:10;97378.88;;;8.77
61977;BMP280;45905;50.570;10.428;2023-11-19T07:59:37;97369.75;;;8.84
61977;BMP280;45905;50.570;10.428;2023-11-19T08:02:07;97368.19;;;8.91
61977;BMP280;45905;50.570;10.428;2023-11-19T08:04:34;97372.91;;;8.94
61977;BMP280;45905;50.570;10.428;2023-11-19T08:07:02;97363.75;;;9.00
61977;BMP280;45905;50.570;10.428;2023-11-19T08:09:29;97365.16;;;9.11
61977;BMP280;45905;50.570;10.428;2023-11-19T08:11:58;97364.38;;;9.18
61977;BMP280;45905;50.570;10.428;2023-11-19T08:14:25;97367.53;;;9.28
61977;BMP280;45905;50.570;10.428;2023-11-19T08:16:53;97376.69;;;9.36
61977;BMP280;45905;50.570;10.428;2023-11-19T08:19:20;97368.16;;;9.45
61977;BMP280;45905;50.570;10.428;2023-11-19T08:21:48;97359.59;;;9.54
61977;BMP280;45905;50.570;10.428;2023-11-19T08:24:15;97356.41;;;9.60
61977;BMP280;45905;50.570;10.428;2023-11-19T08:26:43;97356.53;;;9.66
61977;BMP280;45905;50.570;10.428;2023-11-19T08:29:10;97352.91;;;9.69
61977;BMP280;45905;50.570;10.428;2023-11-19T08:31:38;97349.28;;;9.71
61977;BMP280;45905;50.570;10.428;2023-11-19T08:34:06;97352.41;;;9.73
61977;BMP280;45905;50.570;10.428;2023-11-19T08:36:36;97357.16;;;9.76
61977;BMP280;45905;50.570;10.428;2023-11-19T08:39:04;97353.84;;;9.83
61977;BMP280;45905;50.570;10.428;2023-11-19T08:41:31;97346.88;;;9.85
61977;BMP280;45905;50.570;10.428;2023-11-19T08:43:59;97335.66;;;9.88
61977;BMP280;45905;50.570;10.428;2023-11-19T08:46:27;97345.25;;;9.92
61977;BMP280;45905;50.570;10.428;2023-11-19T08:48:54;97341.31;;;9.97
61977;BMP280;45905;50.570;10.428;2023-11-19T08:51:25;97342.84;;;9.98
61977;BMP280;45905;50.570;10.428;2023-11-19T08:53:52;97335.56;;;10.03
61977;BMP280;45905;50.570;10.428;2023-11-19T08:56:19;97337.59;;;10.08
61977;BMP280;45905;50.570;10.428;2023-11-19T08:58:47;97340.44;;;10.12
61977;BMP280;45905;50.570;10.428;2023-11-19T09:01:14;97345.94;;;10.16
61977;BMP280;45905;50.570;10.428;2023-11-19T09:03:42;97333.59;;;10.21
61977;BMP280;45905;50.570;10.428;2023-11-19T09:06:10;97337.53;;;10.23
61977;BMP280;45905;50.570;10.428;2023-11-19T09:08:37;97346.69;;;10.24
61977;BMP280;45905;50.570;10.428;2023-11-19T09:11:07;97346.38;;;10.27
61977;BMP280;45905;50.570;10.428;2023-11-19T09:13:36;97341.59;;;10.32
61977;BMP280;45905;50.570;10.428;2023-11-19T09:16:04;97345.38;;;10.36
61977;BMP280;45905;50.570;10.428;2023-11-19T09:18:31;97348.81;;;10.43
61977;BMP280;45905;50.570;10.428;2023-11-19T09:20:59;97359.50;;;10.52
61977;BMP280;45905;50.570;10.428;2023-11-19T09:23:27;97360.09;;;10.62
61977;BMP280;45905;50.570;10.428;2023-11-19T09:25:59;97364.13;;;10.71
61977;BMP280;45905;50.570;10.428;2023-11-19T09:28:27;97352.19;;;10.79
61977;BMP280;45905;50.570;10.428;2023-11-19T09:30:55;97359.31;;;10.84
61977;BMP280;45905;50.570;10.428;2023-11-19T09:33:22;97347.25;;;10.86
61977;BMP280;45905;50.570;10.428;2023-11-19T09:35:50;97349.13;;;10.91
61977;BMP280;45905;50.570;10.428;2023-11-19T09:38:18;97349.38;;;10.96
61977;BMP280;45905;50.570;10.428;2023-11-19T09:40:45;97339.38;;;11.03
61977;BMP280;45905;50.570;10.428;2023-11-19T09:43:15;97337.88;;;11.08
61977;BMP280;45905;50.570;10.428;2023-11-19T09:45:49;97334.81;;;11.12
61977;BMP280;45905;50.570;10.428;2023-11-19T09:48:20;97333.06;;;11.13
61977;BMP280;45905;50.570;10.428;2023-11-19T09:50:49;97344.13;;;11.20
61977;BMP280;45905;50.570;10.428;2023-11-19T09:53:17;97342.38;;;11.20
61977;BMP280;45905;50.570;10.428;2023-11-19T09:55:45;97341.41;;;11.21
61977;BMP280;45905;50.570;10.428;2023-11-19T09:58:14;97346.31;;;11.23
61977;BMP280;45905;50.570;10.428;2023-11-19T10:00:42;97355.66;;;11.22
61977;BMP280;45905;50.570;10.428;2023-11-19T10:03:13;97352.31;;;11.22
61977;BMP280;45905;50.570;10.428;2023-11-19T10:05:41;97346.66;;;11.20
61977;BMP280;45905;50.570;10.428;2023-11-19T10:08:09;97336.69;;;11.18
61977;BMP280;45905;50.570;10.428;2023-11-19T10:10:38;97355.66;;;11.22
61977;BMP280;45905;50.570;10.428;2023-11-19T10:13:06;97350.25;;;11.25
61977;BMP280;45905;50.570;10.428;2023-11-19T10:15:38;97370.38;;;11.26
61977;BMP280;45905;50.570;10.428;2023-11-19T10:18:06;97366.38;;;11.32
61977;BMP280;45905;50.570;10.428;2023-11-19T10:20:40;97372.31;;;11.39
61977;BMP280;45905;50.570;10.428;2023-11-19T10:23:08;97384.84;;;11.40
61977;BMP280;45905;50.570;10.428;2023-11-19T10:25:36;97372.44;;;11.45
61977;BMP280;45905;50.570;10.428;2023-11-19T10:28:04;97372.38;;;11.53
61977;BMP280;45905;50.570;10.428;2023-11-19T10:30:31;97356.63;;;11.57
61977;BMP280;45905;50.570;10.428;2023-11-19T10:35:54;97355.47;;;11.60
61977;BMP280;45905;50.570;10.428;2023-11-19T10:38:26;97359.44;;;11.62
61977;BMP280;45905;50.570;10.428;2023-11-19T10:40:55;97347.16;;;11.65
61977;BMP280;45905;50.570;10.428;2023-11-19T10:43:23;97353.94;;;11.73
61977;BMP280;45905;50.570;10.428;2023-11-19T10:45:51;97342.91;;;11.80
61977;BMP280;45905;50.570;10.428;2023-11-19T10:48:19;97346.47;;;11.85
61977;BMP280;45905;50.570;10.428;2023-11-19T10:50:53;97353.56;;;11.90
61977;BMP280;45905;50.570;10.428;2023-11-19T10:53:25;97356.97;;;11.97
61977;BMP280;45905;50.570;10.428;2023-11-19T10:55:57;97350.22;;;12.03
61977;BMP280;45905;50.570;10.428;2023-11-19T10:58:28;97338.56;;;12.09
61977;BMP280;45905;50.570;10.428;2023-11-19T11:01:02;97346.28;;;12.15
61977;BMP280;45905;50.570;10.428;2023-11-19T11:03:39;97326.56;;;12.17
61977;BMP280;45905;50.570;10.428;2023-11-19T11:06:08;97337.94;;;12.21
61977;BMP280;45905;50.570;10.428;2023-11-19T11:08:37;97340.50;;;12.21
61977;BMP280;45905;50.570;10.428;2023-11-19T11:11:07;97336.19;;;12.21
61977;BMP280;45905;50.570;10.428;2023-11-19T11:13:36;97330.50;;;12.20
61977;BMP280;45905;50.570;10.428;2023-11-19T11:16:07;97320.16;;;12.21
61977;BMP280;45905;50.570;10.428;2023-11-19T11:18:35;97312.56;;;12.21
61977;BMP280;45905;50.570;10.428;2023-11-19T11:21:12;97316.06;;;12.20
61977;BMP280;45905;50.570;10.428;2023-11-19T11:30:24;97323.84;;;12.19
61977;BMP280;45905;50.570;10.428;2023-11-19T11:33:32;97312.13;;;12.18
61977;BMP280;45905;50.570;10.428;2023-11-19T11:36:20;97304.69;;;12.16
61977;BMP280;45905;50.570;10.428;2023-11-19T11:38:50;97307.41;;;12.15
61977;BMP280;45905;50.570;10.428;2023-11-19T11:41:23;97328.25;;;12.10
61977;BMP280;45905;50.570;10.428;2023-11-19T11:43:56;97332.53;;;12.10
61977;BMP280;45905;50.570;10.428;2023-11-19T11:49:06;97331.84;;;12.01
61977;BMP280;45905;50.570;10.428;2023-11-19T11:54:31;97349.72;;;11.94
61977;BMP280;45905;50.570;10.428;2023-11-19T11:59:46;97349.81;;;11.86
61977;BMP280;45905;50.570;10.428;2023-11-19T12:02:19;97332.59;;;11.82
61977;BMP280;45905;50.570;10.428;2023-11-19T12:04:52;97339.41;;;11.81
61977;BMP280;45905;50.570;10.428;2023-11-19T12:07:24;97349.72;;;11.80
61977;BMP280;45905;50.570;10.428;2023-11-19T12:10:06;97361.78;;;11.78
61977;BMP280;45905;50.570;10.428;2023-11-19T12:12:35;97357.69;;;11.77
61977;BMP280;45905;50.570;10.428;2023-11-19T12:15:08;97344.03;;;11.78
61977;BMP280;45905;50.570;10.428;2023-11-19T12:20:12;97351.22;;;11.88
61977;BMP280;45905;50.570;10.428;2023-11-19T12:22:41;97352.06;;;11.95
61977;BMP280;45905;50.570;10.428;2023-11-19T12:25:11;97342.38;;;11.99
61977;BMP280;45905;50.570;10.428;2023-11-19T12:27:44;97345.78;;;12.05
61977;BMP280;45905;50.570;10.428;2023-11-19T12:30:12;97349.16;;;12.12
61977;BMP280;45905;50.570;10.428;2023-11-19T12:32:45;97347.66;;;12.18
61977;BMP280;45905;50.570;10.428;2023-11-19T12:35:13;97335.66;;;12.26
61977;BMP280;45905;50.570;10.428;2023-11-19T12:37:48;97355.69;;;12.35
61977;BMP280;45905;50.570;10.428;2023-11-19T12:40:24;97343.25;;;12.40
61977;BMP280;45905;50.570;10.428;2023-11-19T12:42:53;97358.91;;;12.43
61977;BMP280;45905;50.570;10.428;2023-11-19T12:45:23;97344.81;;;12.41
61977;BMP280;45905;50.570;10.428;2023-11-19T12:48:07;97344.88;;;12.47
61977;BMP280;45905;50.570;10.428;2023-11-19T12:50:55;97335.97;;;12.51
61977;BMP280;45905;50.570;10.428;2023-11-19T12:53:25;97319.94;;;12.51
61977;BMP280;45905;50.570;10.428;2023-11-19T12:55:55;97339.09;;;12.53
61977;BMP280;45905;50.570;10.428;2023-11-19T12:58:35;97336.19;;;12.56
61977;BMP280;45905;50.570;10.428;2023-11-19T13:01:07;97315.31;;;12.60
61977;BMP280;45905;50.570;10.428;2023-11-19T13:03:38;97314.34;;;12.61
61977;BMP280;45905;50.570;10.428;2023-11-19T13:06:09;97309.91;;;12.63
61977;BMP280;45905;50.570;10.428;2023-11-19T13:08:39;97306.56;;;12.63
61977;BMP280;45905;50.570;10.428;2023-11-19T13:11:08;97307.50;;;12.62
61977;BMP280;45905;50.570;10.428;2023-11-19T13:16:26;97303.16;;;12.56
61977;BMP280;45905;50.570;10.428;2023-11-19T13:18:54;97305.09;;;12.54
61977;BMP280;45905;50.570;10.428;2023-11-19T13:21:23;97300.00;;;12.54
61977;BMP280;45905;50.570;10.428;2023-11-19T13:23:50;97279.88;;;12.53
61977;BMP280;45905;50.570;10.428;2023-11-19T13:26:18;97288.44;;;12.52
61977;BMP280;45905;50.570;10.428;2023-11-19T13:28:46;97284.38;;;12.51
61977;BMP280;45905;50.570;10.428;2023-11-19T13:31:13;97280.84;;;12.52
61977;BMP280;45905;50.570;10.428;2023-11-19T13:33:42;97277.59;;;12.58
61977;BMP280;45905;50.570;10.428;2023-11-19T13:36:10;97267.81;;;12.61
61977;BMP280;45905;50.570;10.428;2023-11-19T13:38:41;97265.75;;;12.64
61977;BMP280;45905;50.570;10.428;2023-11-19T13:41:09;97271.44;;;12.66
61977;BMP280;45905;50.570;10.428;2023-11-19T13:43:38;97266.59;;;12.71
61977;BMP280;45905;50.570;10.428;2023-11-19T13:46:05;97262.72;;;12.75
61977;BMP280;45905;50.570;10.428;2023-11-19T13:48:33;97275.84;;;12.78
61977;BMP280;45905;50.570;10.428;2023-11-19T13:51:01;97266.28;;;12.80
61977;BMP280;45905;50.570;10.428;2023-11-19T13:53:28;97267.50;;;12.84
61977;BMP280;45905;50.570;10.428;2023-11-19T13:55:55;97249.69;;;12.84
61977;BMP280;45905;50.570;10.428;2023-11-19T13:58:22;97253.03;;;12.85
61977;BMP280;45905;50.570;10.428;2023-11-19T14:00:50;97241.13;;;12.85
61977;BMP280;45905;50.570;10.428;2023-11-19T14:03:18;97230.16;;;12.85
61977;BMP280;45905;50.570;10.428;2023-11-19T14:05:46;97232.09;;;12.83
61977;BMP280;45905;50.570;10.428;2023-11-19T14:08:14;97241.66;;;12.81
61977;BMP280;45905;50.570;10.428;2023-11-19T14:10:52;97243.19;;;12.76
61977;BMP280;45905;50.570;10.428;2023-11-19T14:13:23;97245.47;;;12.71
61977;BMP280;45905;50.570;10.428;2023-11-19T14:15:51;97253.47;;;12.68
61977;BMP280;45905;50.570;10.428;2023-11-19T14:18:19;97254.81;;;12.64
61977;BMP280;45905;50.570;10.428;2023-11-19T14:20:47;97259.41;;;12.60
61977;BMP280;45905;50.570;10.428;2023-11-19T14:23:14;97260.59;;;12.58
61977;BMP280;45905;50.570;10.428;2023-11-19T14:25:42;97248.69;;;12.58
61977;BMP280;45905;50.570;10.428;2023-11-19T14:28:10;97246.31;;;12.57
61977;BMP280;45905;50.570;10.428;2023-11-19T14:30:38;97242.38;;;12.55
61977;BMP280;45905;50.570;10.428;2023-11-19T14:33:06;97240.97;;;12.52
61977;BMP280;45905;50.570;10.428;2023-11-19T14:35:34;97238.22;;;12.47
61977;BMP280;45905;50.570;10.428;2023-11-19T14:38:02;97237.59;;;12.45
61977;BMP280;45905;50.570;10.428;2023-11-19T14:40:32;97233.13;;;12.47